»·PEaware :: SWA6928 KSMF-KBUR

SWA6928 :: KSMF-KBUR

FLIGHT INFORMATION

Flight Status: Arrived
Operator:
Southwest Airlines
More flights by this operator :: More flights under this callsign
Pilot: Leszek K. (20637)
Aircraft: BOEING 737-700
(B737)
More flights by this aircraft type
Origin: KSMF Sacramento Intl
United States
Destination: KBUR Bob Hope-Burbank
United States
More flights between these airports :: More routes between these airports
Route: +FTHIL2 FRA REBRG ROKKR2
File this flight plan on PilotEdge
Remarks:
Altitude:
(Current/Filed)
31,000ft
Speed:
(Current/Filed)
458kts
Departed: 29-Sep-18 07:42 PM
Arrived: 29-Sep-18 08:42 PM
Distance/Time
Traveled:
312nm/1:00
Distance/Time
To Go:
Arrived

Flight Plot

Page will automatically refresh every two minutes.

Flight plan parsing failed; only flown route is shown


Map Options




Map Legend


Flown Route
Filed Route
Departure Airport
Arrival Airport
Navaid (VOR, NDB)
Fix

Horizontal Profiles

Position Reports

Time Latitude Longitude Heading Altitude Ground
Speed
29-Sep-18 19:14 38.695477 -121.595306 97 36ft 0kts
29-Sep-18 19:15 38.695477 -121.595306 97 36ft 0kts
29-Sep-18 19:16 38.695477 -121.595306 97 36ft 0kts
29-Sep-18 19:17 38.695477 -121.595306 97 36ft 0kts
29-Sep-18 19:18 38.695477 -121.595306 97 36ft 0kts
29-Sep-18 19:19 38.695477 -121.595306 97 36ft 0kts
29-Sep-18 19:20 38.695477 -121.595306 97 36ft 0kts
29-Sep-18 19:21 38.695477 -121.595306 97 36ft 0kts
29-Sep-18 19:22 38.695477 -121.595306 97 36ft 0kts
29-Sep-18 19:23 38.695477 -121.595306 97 36ft 0kts
29-Sep-18 19:24 38.695477 -121.595306 97 36ft 0kts
29-Sep-18 19:25 38.695477 -121.595306 97 36ft 0kts
29-Sep-18 19:26 38.695477 -121.595306 97 36ft 0kts
29-Sep-18 19:27 38.695477 -121.595306 97 36ft 0kts
29-Sep-18 19:28 38.695477 -121.595306 97 36ft 0kts
29-Sep-18 19:29 38.695477 -121.595306 97 36ft 0kts
29-Sep-18 19:30 38.695477 -121.595306 97 36ft 0kts
29-Sep-18 19:31 38.695477 -121.595306 97 36ft 0kts
29-Sep-18 19:32 38.695485 -121.595381 97 36ft 2kts
29-Sep-18 19:33 38.695556 -121.596045 97 36ft 0kts
29-Sep-18 19:34 38.695556 -121.596044 97 36ft 0kts
29-Sep-18 19:35 38.695555 -121.596042 97 36ft 0kts
29-Sep-18 19:36 38.695555 -121.596039 97 36ft 0kts
29-Sep-18 19:37 38.694898 -121.596096 213 36ft 7kts
29-Sep-18 19:38 38.694233 -121.598660 192 36ft 10kts
29-Sep-18 19:39 38.692463 -121.598718 181 36ft 6kts
29-Sep-18 19:40 38.688267 -121.598798 181 36ft 19kts
29-Sep-18 19:41 38.684232 -121.598902 195 36ft 6kts
29-Sep-18 19:42 38.683838 -121.600044 270 36ft 0kts
29-Sep-18 19:43 38.684141 -121.601464 339 36ft 6kts
29-Sep-18 19:44 38.707304 -121.601099 0 260ft 166kts
29-Sep-18 19:45 38.731386 -121.564891 110 2550ft 200kts
29-Sep-18 19:46 38.692448 -121.494915 129 4801ft 265kts
29-Sep-18 19:47 38.647930 -121.418540 129 8781ft 274kts
29-Sep-18 19:48 38.598920 -121.334695 131 11685ft 328kts
29-Sep-18 19:49 38.540373 -121.234830 132 14743ft 364kts
29-Sep-18 19:50 38.477796 -121.127612 132 18246ft 388kts
29-Sep-18 19:51 38.410223 -121.016133 142 21441ft 400kts
29-Sep-18 19:52 38.332028 -120.956716 162 23809ft 396kts
29-Sep-18 19:53 38.213681 -120.887167 163 26817ft 407kts
29-Sep-18 19:54 38.127109 -120.836414 164 28652ft 413kts
29-Sep-18 19:55 38.006378 -120.767144 165 30925ft 407kts
29-Sep-18 19:56 37.920372 -120.718171 165 30937ft 407kts
29-Sep-18 19:57 37.817310 -120.658589 165 30925ft 407kts
29-Sep-18 19:58 37.714218 -120.598946 165 30923ft 407kts
29-Sep-18 19:59 37.611279 -120.539541 165 30919ft 407kts
29-Sep-18 20:00 37.508184 -120.480241 165 30920ft 406kts
29-Sep-18 20:01 37.405222 -120.421250 165 30920ft 407kts
29-Sep-18 20:02 37.302280 -120.362461 165 30914ft 407kts
29-Sep-18 20:03 37.198881 -120.303644 165 30916ft 408kts
29-Sep-18 20:04 37.094978 -120.245661 165 30920ft 409kts
29-Sep-18 20:05 36.990769 -120.187975 166 30920ft 408kts
29-Sep-18 20:06 36.886435 -120.131121 165 30919ft 412kts
29-Sep-18 20:07 36.781616 -120.073016 165 30922ft 413kts
29-Sep-18 20:08 36.676684 -120.015244 164 30922ft 414kts
29-Sep-18 20:09 36.572159 -119.954267 164 30924ft 415kts
29-Sep-18 20:10 36.467649 -119.893838 164 30925ft 415kts
29-Sep-18 20:11 36.362909 -119.833319 164 30927ft 415kts
29-Sep-18 20:12 36.258069 -119.772880 164 30925ft 416kts
29-Sep-18 20:13 36.152802 -119.712459 164 30923ft 416kts
29-Sep-18 20:14 36.047584 -119.652419 164 30930ft 416kts
29-Sep-18 20:15 35.940111 -119.626421 191 30930ft 387kts
29-Sep-18 20:16 35.833926 -119.644975 195 30929ft 384kts
29-Sep-18 20:17 35.728586 -119.666196 195 30928ft 385kts
29-Sep-18 20:18 35.621004 -119.674988 182 30927ft 396kts
29-Sep-18 20:19 35.513117 -119.660304 181 30927ft 398kts
29-Sep-18 20:20 35.403601 -119.634732 174 30937ft 406kts
29-Sep-18 20:21 35.294407 -119.602209 174 29798ft 400kts
29-Sep-18 20:22 35.190719 -119.548728 153 27139ft 414kts
29-Sep-18 20:23 35.106054 -119.470023 150 24980ft 405kts
29-Sep-18 20:24 35.019944 -119.389179 150 23978ft 367kts
29-Sep-18 20:25 34.936486 -119.327248 158 21555ft 366kts
29-Sep-18 20:26 34.846306 -119.266886 158 18962ft 365kts
29-Sep-18 20:27 34.758235 -119.208874 157 16723ft 354kts
29-Sep-18 20:28 34.673432 -119.153174 157 14890ft 336kts
29-Sep-18 20:29 34.600193 -119.105497 157 13263ft 318kts
29-Sep-18 20:30 34.525782 -119.053155 148 11661ft 303kts
29-Sep-18 20:31 34.460400 -118.992493 147 10397ft 288kts
29-Sep-18 20:32 34.399136 -118.933399 143 9312ft 277kts
29-Sep-18 20:33 34.340451 -118.873961 143 8318ft 271kts
29-Sep-18 20:34 34.283402 -118.817663 143 7361ft 250kts
29-Sep-18 20:35 34.232256 -118.767552 143 6473ft 229kts
29-Sep-18 20:36 34.188439 -118.725160 143 5682ft 205kts
29-Sep-18 20:37 34.156198 -118.677488 82 4720ft 188kts
29-Sep-18 20:38 34.179883 -118.621557 62 3985ft 185kts
29-Sep-18 20:39 34.199653 -118.565272 84 3179ft 181kts
29-Sep-18 20:40 34.199785 -118.507459 90 2903ft 153kts
29-Sep-18 20:41 34.199156 -118.460948 91 2213ft 132kts
29-Sep-18 20:42 34.198379 -118.416995 90 1432ft 129kts
29-Sep-18 20:43 34.198030 -118.373839 92 790ft 130kts
29-Sep-18 20:44 34.197557 -118.352751 114 729ft 17kts
29-Sep-18 20:45 34.197305 -118.352306 134 729ft 0kts
29-Sep-18 20:46 34.197055 -118.350998 148 729ft 4kts
29-Sep-18 20:47 34.196770 -118.350973 180 729ft 0kts
29-Sep-18 20:48 34.196768 -118.350973 180 729ft 0kts

Navigation Log

Ident Type
Flight plan parsing failed, navigation log unavailable